Cleveland, Ohio
Traffic Map
Current Weather Conditions
Cleveland, Ohio
Broken Clouds
Broken Clouds
13°
Feels Like: 13°
Wind Chill: 13° Ceiling: 3400
Heat Index: 13° Visibility: 10mi
Dew Point: Wind: 10mph
Humidity: 75% Direction: 290° (WNW)
Pressure: 29.75in Gusts: 0mph
Raw Report DataKBKL 231853Z 29009KT 10SM SCT028 BKN034 13/09 A2975 RMK AO2 SLP073 T01330089
Traffic Incident Summary
Active as of:
Severity:
Category:
InformationThere was an issue retrieving the traffic information for this location. Please try a different location or try again shortly.
Advertisements
Track Severe Weather on mobile